Pagrindinis puslapis
METAR-TAF:

METAR-TAF

Oro uostai :

Santjagas, Čilė

platuma: 33-27-23S, ilguma: 070-32-48W, Aukštis: 646 m

Dabartinis oras

Ataskaita buvo paskelbta 12 valandos ir 6 minutes, ne 22:00 UTC
Ramus vėjas
Temperatūra 16°C
Drėgmė 42%
Slėgis 1022 hPa
Matomumas: 9000 m
Su prošvaistėmis ne aukštis 13000 ft

METAR: SCTB 292200Z 00000KT 9000 BKN130 16/03 Q1022

Laikas: 06:06 (10:06 UTC)


TAF: trūkstamas

Orai ataskaitas ir orų prognozės (METAR, TAF).

turimą stotys yra geltonos ir raudonos taškus žemėlapyje.

Perkelti pele per norėdami pamatyti stoties vardą.

Tada spustelėkite, norėdami matyti oro stebėjimo ir prognozės.

Norėdami pakeisti žemėlapį: spustelėkite ant žalios mygtukų su juodo kryžiaus žemyn,; žalią mygtuką su brūkšneliu, jei norite nutolinti; arba žalių rodyklių gretimoms žemėlapius.


METAR-TAF: